Monday, December 18, 2017, 7:44 AM EST
Back to Local

KVAY, Mt Holly South Jersey Rgnl

Location: Medford, NJ, United States Lat: 39.933
Local Time: 7:44 AM EST (12:44 GMT) Lon: -74.833
Time Zone: US/Eastern Elev: 52 ft

Show me the last for .
Show Decoded

2017-12-18 06:54 METAR KVAY 181154Z AUTO 02003KT BKN046 OVC055 02/01 A3011 RMK AO2 SLP196
                 T00220011 10028 20017 58006 $ =
2017-12-18 05:54 METAR KVAY 181054Z AUTO 00000KT 7SM OVC060 02/01 A3012 RMK AO2 SLP200 T00220011
                 $ =
2017-12-18 04:54 METAR KVAY 180954Z AUTO 00000KT BKN049 OVC060 03/02 A3013 RMK AO2 SLP202
                 T00280017 $ =
2017-12-18 03:54 METAR KVAY 180854Z AUTO 00000KT OVC049 02/01 A3013 RMK AO2 SLP202 T00220011
                 58009 $ =
2017-12-18 02:54 METAR KVAY 180754Z AUTO 00000KT OVC050 02/01 A3013 RMK AO2 SLP204 T00220006 $ =
2017-12-18 01:54 METAR KVAY 180654Z AUTO 00000KT OVC034 02/01 A3015 RMK AO2 SLP210 T00220006 $ =
2017-12-18 00:54 METAR KVAY 180554Z AUTO 00000KT BKN070 OVC085 02/01 A3015 RMK AO2 SLP211
                 T00170006 10022 20006 56021 $ =
2017-12-17 23:54 METAR KVAY 180454Z AUTO 02003KT FEW075 OVC090 02/00 A3017 RMK AO2 SLP216
                 T00170000 400611039 $ =
2017-12-17 22:54 METAR KVAY 180354Z AUTO 00000KT OVC085 02/00 A3019 RMK AO2 SLP224 T00170000 $ =
2017-12-17 21:54 METAR KVAY 180254Z AUTO 00000KT OVC090 02/M01 A3022 RMK AO2 SLP232 T00171006
                 56010 $ =
2017-12-17 20:54 METAR KVAY 180154Z AUTO 00000KT BKN120 01/M01 A3023 RMK AO2 SLP236 T00061011 $ =
2017-12-17 19:54 METAR KVAY 180054Z AUTO 00000KT CLR 01/M01 A3023 RMK AO2 SLP236 T00111011 $ =
2017-12-17 18:54 METAR KVAY 172354Z AUTO 00000KT FEW110 02/M01 A3024 RMK AO2 SLP242 T00221011
                 10061 20022 53007 $ =
2017-12-17 17:54 METAR KVAY 172254Z AUTO 00000KT CLR 03/M01 A3024 RMK AO2 SLP240 T00281011 $ =
2017-12-17 16:54 METAR KVAY 172154Z AUTO 00000KT CLR 04/M01 A3022 RMK AO2 SLP235 T00391011 $ =
2017-12-17 15:54 METAR KVAY 172054Z AUTO 04003KT 10SM CLR 05/M01 A3022 RMK AO2 SLP235 T00501011
                 55006 $ =
2017-12-17 14:54 METAR KVAY 171954Z AUTO 02003KT CLR 06/M01 A3021 RMK AO2 SLP232 T00561006 $ =
2017-12-17 13:54 METAR KVAY 171854Z AUTO 00000KT 10SM CLR 06/M01 A3022 RMK AO2 SLP234 T00611011 $
                 =
2017-12-17 12:54 METAR KVAY 171754Z AUTO 00000KT 10SM CLR 06/M01 A3024 RMK AO2 SLP242 I6000
                 T00561011 10061 21039 58015 $ =
2017-12-17 11:54 METAR KVAY 171654Z AUTO 00000KT CLR 04/M02 A3027 RMK AO2 SLP249 T00441017 $ =
2017-12-17 10:54 METAR KVAY 171554Z AUTO 00000KT CLR 04/M02 A3029 RMK AO2 SLP257 T00391022 $ =
2017-12-17 09:54 METAR KVAY 171454Z AUTO 04003KT 10SM CLR 02/M03 A3029 RMK AO2 SLP257 I3000
                 T00171033 51006 $ =
2017-12-17 08:54 METAR KVAY 171354Z AUTO 00000KT 7SM CLR M01/M02 A3028 RMK AO2 SLP255 T10061022 $
                 =
2017-12-17 07:54 METAR KVAY 171254Z AUTO 00000KT 5SM BR CLR M04/M04 A3028 RMK AO2 SLP254 I1000
                 T10391044 $ =

Support USWX by starting your Amazon purchase here.